createdAt,value
2023-05-08T00:00:47.683Z,96345.00
2023-05-08T00:01:50.214Z,96351.03
2023-05-08T00:02:54.973Z,96357.09
2023-05-08T00:03:57.480Z,96352.81
2023-05-08T00:05:05.221Z,96342.13
2023-05-08T00:06:07.851Z,96350.09
2023-05-08T00:07:12.499Z,96344.16
2023-05-08T00:08:15.561Z,96346.06
2023-05-08T00:09:20.353Z,96340.13
2023-05-08T00:10:22.375Z,96344.41
2023-05-08T00:11:27.188Z,96340.81
2023-05-08T00:12:29.303Z,96341.69
2023-05-08T00:13:36.575Z,96344.25
2023-05-08T00:14:38.596Z,96344.25
2023-05-08T00:15:43.442Z,96347.69
2023-05-08T00:16:45.605Z,96342.63
2023-05-08T00:17:50.364Z,96335.59
2023-05-08T00:18:53.950Z,96344.16
2023-05-08T00:19:58.902Z,96338.97
2023-05-08T00:21:01.100Z,96343.22
2023-05-08T00:22:05.708Z,96344.28
2023-05-08T00:23:07.794Z,96347.84
2023-05-08T00:24:12.739Z,96352.28
2023-05-08T00:25:14.867Z,96352.22
2023-05-08T00:26:19.559Z,96349.69
2023-05-08T00:27:21.861Z,96344.41
2023-05-08T00:28:26.501Z,96349.69
2023-05-08T00:29:31.304Z,96349.69
2023-05-08T00:30:35.987Z,96351.38
2023-05-08T00:31:38.030Z,96351.22
2023-05-08T00:32:42.880Z,96342.63
2023-05-08T00:33:45.029Z,96351.22
2023-05-08T00:34:49.656Z,96351.22
2023-05-08T00:35:51.769Z,96351.13
2023-05-08T00:36:56.492Z,96346.88
2023-05-08T00:37:58.592Z,96349.50
2023-05-08T00:39:03.213Z,96347.84
2023-05-08T00:40:06.693Z,96352.22
2023-05-08T00:41:11.343Z,96352.28
2023-05-08T00:42:13.369Z,96352.28
2023-05-08T00:43:18.035Z,96341.88
2023-05-08T00:44:20.073Z,96351.38
2023-05-08T00:45:28.130Z,96354.81
2023-05-08T00:46:31.183Z,96351.38
2023-05-08T00:47:35.976Z,96353.03
2023-05-08T00:48:40.166Z,96358.25
2023-05-08T00:49:45.797Z,96349.50
2023-05-08T00:50:48.730Z,96342.56
2023-05-08T00:51:55.894Z,96345.22
2023-05-08T00:52:59.142Z,96357.41
2023-05-08T00:54:03.936Z,96345.06
2023-05-08T00:55:07.845Z,96352.88
2023-05-08T00:56:13.983Z,96347.84
2023-05-08T00:57:16.840Z,96341.78
2023-05-08T00:58:22.309Z,96344.16
2023-05-08T00:59:26.251Z,96354.72
2023-05-08T01:00:35.194Z,96346.88
2023-05-08T01:01:38.095Z,96347.84
2023-05-08T01:02:43.550Z,96349.69
2023-05-08T01:03:45.939Z,96353.03
2023-05-08T01:04:51.338Z,96346.16
2023-05-08T01:05:54.770Z,96348.78
2023-05-08T01:06:59.514Z,96355.63
2023-05-08T01:08:01.597Z,96355.63
2023-05-08T01:09:08.095Z,96355.56
2023-05-08T01:10:11.152Z,96352.28
2023-05-08T01:11:22.002Z,96352.22
2023-05-08T01:12:31.343Z,96349.50
2023-05-08T01:13:48.916Z,96356.16
2023-05-08T01:15:04.252Z,96352.06
2023-05-08T01:16:17.477Z,96363.22
2023-05-08T01:17:42.718Z,96359.91
2023-05-08T01:18:53.950Z,96363.31
2023-05-08T01:20:06.304Z,96364.06
2023-05-08T01:21:16.811Z,96359.78
2023-05-08T01:22:32.815Z,96366.84
2023-05-08T01:24:07.462Z,96364.25
2023-05-08T01:25:35.281Z,96361.28
2023-05-08T01:27:18.408Z,96362.03
2023-05-08T01:28:55.709Z,96356.91
2023-05-08T01:30:42.008Z,96362.28
2023-05-08T01:32:07.947Z,96357.00
2023-05-08T01:33:20.676Z,96356.91
2023-05-08T01:34:27.270Z,96363.53
2023-05-08T01:35:36.467Z,96361.75
2023-05-08T01:36:47.418Z,96363.34
2023-05-08T01:38:00.932Z,96355.53
2023-05-08T01:39:18.221Z,96362.44
2023-05-08T01:40:34.706Z,96360.38
2023-05-08T01:41:37.956Z,96361.31
2023-05-08T01:42:49.650Z,96359.66
2023-05-08T01:43:54.092Z,96361.31
2023-05-08T01:45:03.658Z,96366.63
2023-05-08T01:46:13.714Z,96363.91
2023-05-08T01:47:27.022Z,96361.25
2023-05-08T01:48:33.142Z,96370.06
2023-05-08T01:49:43.000Z,96362.97
2023-05-08T01:50:47.979Z,96366.53
2023-05-08T01:52:00.175Z,96364.09
2023-05-08T01:53:10.112Z,96367.47
2023-05-08T01:54:20.529Z,96362.25
2023-05-08T01:55:30.470Z,96374.34
2023-05-08T01:56:35.837Z,96369.31
2023-05-08T01:57:49.477Z,96372.00
2023-05-08T01:59:02.808Z,96378.25
2023-05-08T02:00:06.770Z,96385.13
2023-05-08T02:01:13.885Z,96377.31
2023-05-08T02:02:21.989Z,96379.06
2023-05-08T02:03:25.492Z,96386.97
2023-05-08T02:04:31.401Z,96377.56
2023-05-08T02:05:35.456Z,96383.47
2023-05-08T02:06:41.763Z,96385.31
2023-05-08T02:07:46.875Z,96382.03
2023-05-08T02:08:52.710Z,96380.44
2023-05-08T02:09:55.889Z,96382.19
2023-05-08T02:11:03.620Z,96387.31
2023-05-08T02:12:08.426Z,96383.59
2023-05-08T02:13:14.443Z,96385.47
2023-05-08T02:14:19.912Z,96384.47
2023-05-08T02:15:27.461Z,96385.31
2023-05-08T02:16:31.268Z,96374.88
2023-05-08T02:17:41.278Z,96380.91
2023-05-08T02:18:47.297Z,96387.97
2023-05-08T02:19:54.156Z,96384.66
2023-05-08T02:20:59.672Z,96380.44
2023-05-08T02:22:05.673Z,96376.91
2023-05-08T02:23:08.805Z,96382.88
2023-05-08T02:24:14.539Z,96381.19
2023-05-08T02:25:17.182Z,96388.25
2023-05-08T02:26:23.077Z,96381.28
2023-05-08T02:27:28.243Z,96387.06
2023-05-08T02:28:33.968Z,96385.31
2023-05-08T02:29:36.716Z,96380.09
2023-05-08T02:30:43.276Z,96384.47
2023-05-08T02:31:47.087Z,96385.31
2023-05-08T02:32:58.930Z,96381.94
2023-05-08T02:36:07.064Z,96383.97
2023-05-08T02:37:11.744Z,96385.72
2023-05-08T02:38:18.617Z,96391.94
2023-05-08T02:39:25.606Z,96390.19
2023-05-08T02:40:32.458Z,96392.03
2023-05-08T02:41:35.557Z,96387.00
2023-05-08T02:42:40.451Z,96385.28
2023-05-08T02:43:42.864Z,96385.41
2023-05-08T02:44:47.861Z,96382.88
2023-05-08T02:45:57.326Z,96380.38
2023-05-08T02:47:08.699Z,96379.44
2023-05-08T02:48:26.662Z,96380.38
2023-05-08T02:49:40.912Z,96374.41
2023-05-08T02:50:50.915Z,96379.59
2023-05-08T02:52:00.106Z,96377.91
2023-05-08T02:53:05.259Z,96380.63
2023-05-08T02:54:14.674Z,96375.41
2023-05-08T02:55:30.029Z,96376.84
2023-05-08T02:56:40.359Z,96380.91
2023-05-08T02:57:48.377Z,96383.63
2023-05-08T02:59:02.380Z,96381.09
2023-05-08T03:00:12.820Z,96381.09
2023-05-08T03:01:24.688Z,96380.19
2023-05-08T03:02:29.165Z,96380.38
2023-05-08T03:03:41.914Z,96385.56
2023-05-08T03:04:51.644Z,96380.38
2023-05-08T03:05:59.643Z,96385.56
2023-05-08T03:07:03.424Z,96379.59
2023-05-08T03:08:13.127Z,96382.22
2023-05-08T03:09:19.730Z,96379.59
2023-05-08T03:10:28.023Z,96377.09
2023-05-08T03:11:43.279Z,96378.84
2023-05-08T03:12:52.590Z,96372.88
2023-05-08T03:13:59.298Z,96372.16
2023-05-08T03:15:10.030Z,96369.56
2023-05-08T03:16:17.582Z,96371.38
2023-05-08T03:17:25.918Z,96371.16
2023-05-08T03:18:35.283Z,96377.19
2023-05-08T03:19:42.210Z,96374.59
2023-05-08T03:20:47.976Z,96372.72
2023-05-08T03:21:54.864Z,96376.25
2023-05-08T03:22:57.689Z,96375.47
2023-05-08T03:24:05.078Z,96370.09
2023-05-08T03:25:10.788Z,96366.78
2023-05-08T03:26:20.300Z,96375.47
2023-05-08T03:27:23.289Z,96372.81
2023-05-08T03:28:29.203Z,96376.25
2023-05-08T03:29:33.699Z,96370.22
2023-05-08T03:30:40.218Z,96380.78
2023-05-08T03:31:44.141Z,96379.97
2023-05-08T03:32:49.709Z,96374.00
2023-05-08T03:33:55.932Z,96374.84
2023-05-08T03:35:02.536Z,96385.34
2023-05-08T03:36:05.392Z,96376.78
2023-05-08T03:37:10.515Z,96379.38
2023-05-08T03:38:13.100Z,96378.44
2023-05-08T03:39:17.878Z,96381.03
2023-05-08T03:40:20.476Z,96380.13
2023-05-08T03:41:25.561Z,96384.47
2023-05-08T03:42:28.142Z,96383.56
2023-05-08T03:43:34.538Z,96391.38
2023-05-08T03:44:38.121Z,96388.50
2023-05-08T03:45:43.632Z,96385.00
2023-05-08T03:46:47.499Z,96378.09
2023-05-08T03:48:18.847Z,96386.84
2023-05-08T03:49:28.150Z,96383.28
2023-05-08T03:50:30.737Z,96388.50
2023-05-08T03:51:37.401Z,96386.06
2023-05-08T03:52:39.455Z,96387.00
2023-05-08T03:53:44.132Z,96394.72
2023-05-08T03:54:46.330Z,96389.63
2023-05-08T03:55:51.007Z,96387.59
2023-05-08T03:56:54.488Z,96390.28
2023-05-08T03:58:02.977Z,96391.03
2023-05-08T03:59:12.340Z,96394.56
2023-05-08T04:00:25.002Z,96391.88
2023-05-08T04:01:40.085Z,96389.19
2023-05-08T04:02:52.813Z,96392.53
2023-05-08T04:04:01.790Z,96396.00
2023-05-08T04:05:26.382Z,96392.63
2023-05-08T04:06:48.707Z,96392.81
2023-05-08T04:07:59.381Z,96396.91
2023-05-08T04:09:08.039Z,96395.22
2023-05-08T04:10:19.075Z,96394.41
2023-05-08T04:11:30.742Z,96395.22
2023-05-08T04:12:40.165Z,96401.28
2023-05-08T04:13:49.349Z,96403.03
2023-05-08T04:14:58.521Z,96401.03
2023-05-08T04:16:07.559Z,96403.81
2023-05-08T04:17:15.002Z,96397.84
2023-05-08T04:18:19.211Z,96402.22
2023-05-08T04:19:27.930Z,96404.81
2023-05-08T04:20:34.394Z,96406.47
2023-05-08T04:21:42.242Z,96403.81
2023-05-08T04:22:47.057Z,96402.09
2023-05-08T04:23:54.445Z,96404.63
2023-05-08T04:25:00.687Z,96401.09
2023-05-08T04:26:06.830Z,96407.06
2023-05-08T04:27:10.181Z,96403.44
2023-05-08T04:28:15.086Z,96404.47
2023-05-08T04:29:18.788Z,96407.06
2023-05-08T04:30:23.651Z,96405.28
2023-05-08T04:31:27.899Z,96411.34
2023-05-08T04:32:35.116Z,96414.88
2023-05-08T04:33:37.346Z,96414.88
2023-05-08T04:34:42.272Z,96409.00
2023-05-08T04:35:47.386Z,96408.16
2023-05-08T04:36:52.444Z,96410.31
2023-05-08T04:37:54.743Z,96408.66
2023-05-08T04:38:59.504Z,96413.88
2023-05-08T04:40:02.436Z,96412.94
2023-05-08T04:41:07.441Z,96409.66
2023-05-08T04:42:09.602Z,96414.03
2023-05-08T04:43:14.434Z,96419.97
2023-05-08T04:44:16.555Z,96414.94
2023-05-08T04:45:21.711Z,96419.25
2023-05-08T04:46:24.829Z,96418.06
2023-05-08T04:47:29.696Z,96425.19
2023-05-08T04:48:34.061Z,96430.31
2023-05-08T04:49:38.720Z,96419.06
2023-05-08T04:50:40.890Z,96427.78
2023-05-08T04:51:48.177Z,96432.09
2023-05-08T04:52:50.224Z,96428.56
2023-05-08T04:53:54.984Z,96432.00
2023-05-08T04:54:57.017Z,96435.44
2023-05-08T04:56:01.747Z,96437.06
2023-05-08T04:57:04.225Z,96435.22
2023-05-08T04:58:08.838Z,96438.66
2023-05-08T04:59:12.480Z,96435.13
2023-05-08T05:00:18.900Z,96437.75
2023-05-08T05:01:20.946Z,96435.03
2023-05-08T05:02:25.639Z,96440.06
2023-05-08T05:03:27.725Z,96434.97
2023-05-08T05:04:32.411Z,96442.50
2023-05-08T05:05:38.715Z,96438.16
2023-05-08T05:06:43.945Z,96442.31
2023-05-08T05:07:48.607Z,96444.09
2023-05-08T05:08:53.244Z,96439.63
2023-05-08T05:09:55.302Z,96438.69
2023-05-08T05:12:06.318Z,96437.63
2023-05-08T05:13:08.475Z,96436.59
2023-05-08T05:14:13.202Z,96442.47
2023-05-08T05:15:15.904Z,96442.41
2023-05-08T05:16:20.585Z,96443.13
2023-05-08T05:17:22.662Z,96445.66
2023-05-08T05:18:27.366Z,96448.84
2023-05-08T05:19:29.590Z,96443.63
2023-05-08T05:20:34.817Z,96444.34
2023-05-08T05:21:38.188Z,96443.16
2023-05-08T05:22:42.819Z,96443.09
2023-05-08T05:23:47.508Z,96446.34
2023-05-08T05:24:52.389Z,96435.84
2023-05-08T05:25:54.392Z,96440.03
2023-05-08T05:27:00.615Z,96443.47
2023-05-08T05:28:02.642Z,96444.97
2023-05-08T05:29:07.556Z,96441.81
2023-05-08T05:30:10.319Z,96442.38
2023-05-08T05:31:15.227Z,96444.63
2023-05-08T05:32:17.287Z,96447.25
2023-05-08T05:33:22.036Z,96447.25
2023-05-08T05:34:24.115Z,96446.19
2023-05-08T05:35:28.746Z,96450.56
2023-05-08T05:36:30.943Z,96457.19
2023-05-08T05:37:36.031Z,96452.16
2023-05-08T05:38:38.131Z,96459.97
2023-05-08T05:39:45.383Z,96445.94
2023-05-08T05:40:47.549Z,96459.63
2023-05-08T05:41:52.278Z,96452.72
2023-05-08T05:42:56.959Z,96461.03
2023-05-08T05:43:59.029Z,96458.41
2023-05-08T05:45:03.890Z,96458.41
2023-05-08T05:46:06.160Z,96462.53
2023-05-08T05:47:11.387Z,96465.03
2023-05-08T05:48:13.537Z,96458.81
2023-05-08T05:49:18.278Z,96463.00
2023-05-08T05:50:21.682Z,96462.91
2023-05-08T05:51:27.806Z,96466.28
2023-05-08T05:52:29.870Z,96461.72
2023-05-08T05:53:34.662Z,96463.19
2023-05-08T05:54:36.680Z,96458.09
2023-05-08T05:55:43.974Z,96465.53
2023-05-08T05:56:46.034Z,96467.97
2023-05-08T05:57:51.170Z,96471.13
2023-05-08T05:58:53.252Z,96470.94
2023-05-08T05:59:59.923Z,96466.19
2023-05-08T06:01:01.936Z,96464.06
2023-05-08T06:02:06.666Z,96461.97
2023-05-08T06:03:09.058Z,96457.34
2023-05-08T06:04:13.845Z,96460.25
2023-05-08T06:05:15.955Z,96462.38
2023-05-08T06:06:20.616Z,96456.66
2023-05-08T06:07:22.792Z,96461.31
2023-05-08T06:08:27.404Z,96457.38
2023-05-08T06:09:30.241Z,96452.41
2023-05-08T06:10:34.941Z,96456.50
2023-05-08T06:11:39.668Z,96445.44
2023-05-08T06:12:44.426Z,96444.97
2023-05-08T06:13:47.277Z,96445.94
2023-05-08T06:14:54.811Z,96451.69
2023-05-08T06:15:57.051Z,96447.44
2023-05-08T06:17:01.734Z,96443.50
2023-05-08T06:18:04.123Z,96451.13
2023-05-08T06:19:08.903Z,96445.69
2023-05-08T06:20:11.348Z,96439.03
2023-05-08T06:21:16.332Z,96441.38
2023-05-08T06:22:23.357Z,96444.19
2023-05-08T06:23:28.428Z,96441.78
2023-05-08T06:24:30.824Z,96441.16
2023-05-08T06:25:35.487Z,96440.31
2023-05-08T06:26:40.202Z,96445.13
2023-05-08T06:27:44.839Z,96448.28
2023-05-08T06:28:49.732Z,96443.78
2023-05-08T06:29:54.895Z,96445.44
2023-05-08T06:30:56.969Z,96449.22
2023-05-08T06:32:01.729Z,96441.06
2023-05-08T06:33:04.180Z,96438.00
2023-05-08T06:34:09.427Z,96438.53
2023-05-08T06:35:12.537Z,96439.88
2023-05-08T06:36:17.413Z,96437.97
2023-05-08T06:37:19.565Z,96435.25
2023-05-08T06:38:24.562Z,96439.00
2023-05-08T06:39:26.661Z,96442.34
2023-05-08T06:40:31.676Z,96443.94
2023-05-08T06:41:33.924Z,96441.69
2023-05-08T06:42:41.469Z,96440.44
2023-05-08T06:43:43.533Z,96444.69
2023-05-08T06:44:48.165Z,96441.16
2023-05-08T06:45:50.505Z,96441.78
2023-05-08T06:46:55.518Z,96439.06
2023-05-08T06:47:57.784Z,96444.16
2023-05-08T06:49:02.452Z,96446.06
2023-05-08T06:50:05.252Z,96437.91
2023-05-08T06:51:09.871Z,96437.50
2023-05-08T06:52:14.513Z,96443.78
2023-05-08T06:53:16.549Z,96442.41
2023-05-08T06:54:21.177Z,96445.75
2023-05-08T06:55:23.457Z,96442.69
2023-05-08T06:56:28.127Z,96440.59
2023-05-08T06:57:30.635Z,96442.88
2023-05-08T06:58:37.885Z,96445.50
2023-05-08T06:59:42.512Z,96442.06
2023-05-08T07:00:47.208Z,96441.59
2023-05-08T07:01:49.346Z,96447.59
2023-05-08T07:02:54.947Z,96449.97
2023-05-08T07:03:57.008Z,96442.94
2023-05-08T07:05:02.015Z,96448.06
2023-05-08T07:06:07.424Z,96449.75
2023-05-08T07:07:09.461Z,96448.69
2023-05-08T07:08:14.091Z,96448.47
2023-05-08T07:09:19.580Z,96451.59
2023-05-08T07:10:24.417Z,96453.88
2023-05-08T07:11:29.124Z,96451.97
2023-05-08T07:12:31.147Z,96446.50
2023-05-08T07:13:38.598Z,96451.28
2023-05-08T07:14:40.637Z,96446.69
2023-05-08T07:15:45.298Z,96447.72
2023-05-08T07:16:47.410Z,96448.78
2023-05-08T07:17:52.189Z,96452.97
2023-05-08T07:18:54.271Z,96444.97
2023-05-08T07:19:58.926Z,96446.53
2023-05-08T07:21:03.568Z,96451.31
2023-05-08T07:22:06.031Z,96453.13
2023-05-08T07:23:10.769Z,96460.16
2023-05-08T07:24:15.417Z,96455.41
2023-05-08T07:25:17.613Z,96449.22
2023-05-08T07:26:22.759Z,96458.38
2023-05-08T07:27:24.883Z,96450.78
2023-05-08T07:28:29.788Z,96456.28
2023-05-08T07:29:37.788Z,96449.84
2023-05-08T07:30:39.871Z,96451.16
2023-05-08T07:31:46.054Z,96454.41
2023-05-08T07:32:50.860Z,96459.72
2023-05-08T07:33:52.979Z,96452.13
2023-05-08T07:34:57.631Z,96456.06
2023-05-08T07:36:02.305Z,96456.56
2023-05-08T07:37:04.382Z,96450.16
2023-05-08T07:38:09.332Z,96460.19
2023-05-08T07:39:11.516Z,96458.78
2023-05-08T07:40:16.504Z,96460.56
2023-05-08T07:41:21.191Z,96467.13
2023-05-08T07:42:23.260Z,96462.22
2023-05-08T07:43:27.948Z,96462.94
2023-05-08T07:44:43.537Z,96464.84
2023-05-08T07:45:52.235Z,96470.34
2023-05-08T07:46:54.291Z,96465.81
2023-05-08T07:48:00.447Z,96463.91
2023-05-08T07:49:02.536Z,96469.63
2023-05-08T07:50:08.070Z,96465.81
2023-05-08T07:51:11.423Z,96466.81
2023-05-08T07:52:16.080Z,96470.75
2023-05-08T07:53:18.357Z,96460.84
2023-05-08T07:54:23.025Z,96465.84
2023-05-08T07:55:25.190Z,96466.34
2023-05-08T07:56:30.210Z,96462.13
2023-05-08T07:57:37.214Z,96460.59
2023-05-08T07:58:42.860Z,96465.59
2023-05-08T07:59:50.137Z,96460.00
2023-05-08T08:00:52.279Z,96468.47
2023-05-08T08:01:56.978Z,96466.09
2023-05-08T08:02:59.180Z,96463.94
2023-05-08T08:04:04.071Z,96463.94
2023-05-08T08:05:09.427Z,96459.88
2023-05-08T08:06:14.087Z,96459.88
2023-05-08T08:07:16.191Z,96459.28
2023-05-08T08:08:21.056Z,96461.56
2023-05-08T08:09:23.289Z,96462.00
2023-05-08T08:10:28.304Z,96459.50
2023-05-08T08:11:30.344Z,96456.53
2023-05-08T08:12:35.218Z,96451.72
2023-05-08T08:13:39.852Z,96460.34
2023-05-08T08:14:41.949Z,96455.31
2023-05-08T08:15:49.173Z,96455.31
2023-05-08T08:16:51.306Z,96451.00
2023-05-08T08:17:56.019Z,96453.84
2023-05-08T08:19:00.767Z,96459.19
2023-05-08T08:20:05.569Z,96458.19
2023-05-08T08:21:10.868Z,96461.25
2023-05-08T08:22:13.052Z,96456.34
2023-05-08T08:23:17.749Z,96456.47
2023-05-08T08:24:20.010Z,96455.13
2023-05-08T08:25:24.996Z,96461.53
2023-05-08T08:26:27.154Z,96454.94
2023-05-08T08:27:32.458Z,96461.81
2023-05-08T08:28:34.572Z,96462.63
2023-05-08T08:29:39.333Z,96470.16
2023-05-08T08:30:41.415Z,96464.31
2023-05-08T08:31:48.742Z,96466.19
2023-05-08T08:32:50.858Z,96465.56
2023-05-08T08:33:55.533Z,96456.59
2023-05-08T08:34:57.594Z,96462.78
2023-05-08T08:36:02.291Z,96465.16
2023-05-08T08:37:05.923Z,96466.84
2023-05-08T08:38:10.582Z,96466.44
2023-05-08T08:39:13.875Z,96462.53
2023-05-08T08:40:19.958Z,96470.88
2023-05-08T08:41:22.371Z,96470.06
2023-05-08T08:42:27.137Z,96465.88
2023-05-08T08:43:29.689Z,96472.81
2023-05-08T08:44:34.400Z,96467.31
2023-05-08T08:45:36.831Z,96470.94
2023-05-08T08:46:47.688Z,96464.91
2023-05-08T08:47:56.497Z,96467.63
2023-05-08T08:48:59.601Z,96470.56
2023-05-08T08:50:07.071Z,96471.75
2023-05-08T08:51:17.106Z,96475.50
2023-05-08T08:52:29.920Z,96462.97
2023-05-08T08:53:37.675Z,96459.16
2023-05-08T08:54:44.740Z,96458.97
2023-05-08T08:55:50.689Z,96453.69
2023-05-08T08:56:56.517Z,96462.34
2023-05-08T08:58:12.855Z,96455.06
2023-05-08T08:59:19.733Z,96444.00
2023-05-08T09:00:26.348Z,96442.34
2023-05-08T09:01:30.514Z,96446.63
2023-05-08T09:02:35.412Z,96452.31
2023-05-08T09:03:40.553Z,96440.09
2023-05-08T09:04:45.578Z,96444.28
2023-05-08T09:05:51.101Z,96449.28
2023-05-08T09:06:54.127Z,96443.16
2023-05-08T09:07:59.445Z,96449.59
2023-05-08T09:09:02.299Z,96455.28
2023-05-08T09:10:15.428Z,96451.81
2023-05-08T09:11:20.112Z,96452.69
2023-05-08T09:12:24.815Z,96451.44
2023-05-08T09:13:27.109Z,96446.00
2023-05-08T09:14:32.141Z,96438.53
2023-05-08T09:15:34.377Z,96445.22
2023-05-08T09:16:40.201Z,96450.09
2023-05-08T09:17:42.367Z,96455.53
2023-05-08T09:18:49.609Z,96456.13
2023-05-08T09:19:52.708Z,96452.38
2023-05-08T09:20:57.633Z,96449.50
2023-05-08T09:22:00.702Z,96458.13
2023-05-08T09:23:05.576Z,96445.06
2023-05-08T09:24:07.746Z,96447.00
2023-05-08T09:25:13.867Z,96447.72
2023-05-08T09:26:27.818Z,96440.06
2023-05-08T09:27:34.905Z,96438.81
2023-05-08T09:28:39.521Z,96443.13
2023-05-08T09:29:41.690Z,96435.75
2023-05-08T09:30:52.666Z,96437.66
2023-05-08T09:31:54.753Z,96426.91
2023-05-08T09:33:04.591Z,96416.81
2023-05-08T09:34:13.414Z,96429.50
2023-05-08T09:35:15.813Z,96438.53
2023-05-08T09:36:29.170Z,96414.41
2023-05-08T09:37:31.573Z,96433.41
2023-05-08T09:38:37.959Z,96419.91
2023-05-08T09:39:41.682Z,96425.88
2023-05-08T09:40:46.330Z,96417.78
2023-05-08T09:42:00.885Z,96415.56
2023-05-08T09:43:13.975Z,96422.56
2023-05-08T09:44:18.694Z,96423.84
2023-05-08T09:45:31.994Z,96445.94
2023-05-08T09:46:35.054Z,96457.78
2023-05-08T09:47:40.508Z,96443.53
2023-05-08T09:48:43.095Z,96444.63
2023-05-08T09:50:04.189Z,96431.84
2023-05-08T09:51:06.879Z,96429.09
2023-05-08T09:52:18.261Z,96431.34
2023-05-08T09:53:22.880Z,96443.03
2023-05-08T09:54:24.906Z,96437.53
2023-05-08T09:55:29.621Z,96444.91
2023-05-08T09:56:33.207Z,96459.53
2023-05-08T09:57:39.907Z,96460.38
2023-05-08T09:58:43.608Z,96462.19
2023-05-08T09:59:48.296Z,96465.94
2023-05-08T10:00:52.999Z,96474.25
2023-05-08T10:01:56.116Z,96469.66
2023-05-08T10:03:01.982Z,96455.34
2023-05-08T10:04:06.249Z,96456.16
2023-05-08T10:05:27.452Z,96453.50
2023-05-08T10:06:30.065Z,96461.66
2023-05-08T10:07:37.382Z,96470.53
2023-05-08T10:08:39.420Z,96455.22
2023-05-08T10:10:00.856Z,96447.38
2023-05-08T10:11:14.835Z,96447.50
2023-05-08T10:12:19.564Z,96441.97
2023-05-08T10:13:21.819Z,96460.63
2023-05-08T10:14:27.676Z,96460.06
2023-05-08T10:15:33.798Z,96448.34
2023-05-08T10:16:42.126Z,96450.84
2023-05-08T10:17:53.245Z,96453.84
2023-05-08T10:19:02.302Z,96450.22
2023-05-08T10:20:10.528Z,96438.13
2023-05-08T10:21:15.882Z,96455.47
2023-05-08T10:22:22.847Z,96441.31
2023-05-08T10:23:28.476Z,96442.81
2023-05-08T10:24:36.771Z,96447.06
2023-05-08T10:25:48.148Z,96451.78
2023-05-08T10:27:06.383Z,96431.78
2023-05-08T10:28:17.065Z,96438.91
2023-05-08T10:29:27.703Z,96442.69
2023-05-08T10:30:31.928Z,96407.41
2023-05-08T10:31:39.972Z,96407.56
2023-05-08T10:32:48.689Z,96398.94
2023-05-08T10:33:55.358Z,96412.25
2023-05-08T10:35:03.424Z,96424.41
2023-05-08T10:36:10.119Z,96419.56
2023-05-08T10:37:15.449Z,96419.22
2023-05-08T10:38:22.648Z,96414.97
2023-05-08T10:39:26.300Z,96423.59
2023-05-08T10:40:31.383Z,96418.31
2023-05-08T10:41:34.784Z,96416.25
2023-05-08T10:42:39.994Z,96405.59
2023-05-08T10:43:46.348Z,96427.72
2023-05-08T10:44:51.766Z,96433.72
2023-05-08T10:45:55.924Z,96427.69
2023-05-08T10:47:10.832Z,96416.84
2023-05-08T10:48:31.888Z,96431.28
2023-05-08T10:49:44.420Z,96420.47
2023-05-08T10:51:01.049Z,96415.63
2023-05-08T10:52:16.639Z,96435.72
2023-05-08T10:53:34.589Z,96430.94
2023-05-08T10:54:53.169Z,96432.63
2023-05-08T10:55:58.952Z,96426.91
2023-05-08T10:57:14.403Z,96414.31
2023-05-08T10:58:33.415Z,96441.94
2023-05-08T10:59:36.315Z,96446.91
2023-05-08T11:01:15.352Z,96443.00
2023-05-08T11:02:32.199Z,96444.75
2023-05-08T11:03:40.960Z,96447.91
2023-05-08T11:04:46.743Z,96439.53
2023-05-08T11:05:50.725Z,96434.72
2023-05-08T11:06:55.785Z,96433.09
2023-05-08T11:07:59.910Z,96437.84
2023-05-08T11:09:08.863Z,96435.66
2023-05-08T11:10:17.271Z,96432.00
2023-05-08T11:11:29.040Z,96443.41
2023-05-08T11:12:36.617Z,96439.78
2023-05-08T11:13:43.640Z,96446.03
2023-05-08T11:14:58.718Z,96453.66
2023-05-08T11:16:01.850Z,96459.78
2023-05-08T11:17:09.212Z,96466.88
2023-05-08T11:18:12.353Z,96441.88
2023-05-08T11:19:22.289Z,96443.09
2023-05-08T11:20:42.317Z,96461.19
2023-05-08T11:22:17.386Z,96451.16
2023-05-08T11:23:25.841Z,96451.72
2023-05-08T11:24:36.825Z,96454.25
2023-05-08T11:25:46.322Z,96430.91
2023-05-08T11:26:49.846Z,96446.75
2023-05-08T11:28:12.930Z,96449.97
2023-05-08T11:29:18.267Z,96437.84
2023-05-08T11:30:38.163Z,96444.38
2023-05-08T11:31:58.003Z,96453.28
2023-05-08T11:33:16.499Z,96444.47
2023-05-08T11:34:54.024Z,96448.50
2023-05-08T11:36:00.600Z,96454.31
2023-05-08T11:37:03.390Z,96458.31
2023-05-08T11:38:41.296Z,96456.31
2023-05-08T11:39:46.576Z,96456.63
2023-05-08T11:40:58.334Z,96454.00
2023-05-08T11:42:33.067Z,96471.78
2023-05-08T11:44:14.911Z,96462.22
2023-05-08T11:45:23.114Z,96453.66
2023-05-08T11:46:39.510Z,96460.03
2023-05-08T11:47:46.538Z,96446.69
2023-05-08T11:48:49.402Z,96450.31
2023-05-08T11:49:54.676Z,96447.66
2023-05-08T11:50:57.881Z,96435.03
2023-05-08T11:52:04.777Z,96456.28
2023-05-08T11:53:07.839Z,96446.69
2023-05-08T11:54:13.512Z,96452.00
2023-05-08T11:55:20.288Z,96456.69
2023-05-08T11:56:26.876Z,96443.38
2023-05-08T11:57:31.429Z,96450.59
2023-05-08T11:58:36.981Z,96451.31
2023-05-08T11:59:45.234Z,96445.25
2023-05-08T12:00:49.078Z,96443.69
2023-05-08T12:02:07.504Z,96442.69
2023-05-08T12:03:13.951Z,96435.88
2023-05-08T12:04:19.489Z,96428.56
2023-05-08T12:05:27.834Z,96427.38
2023-05-08T12:06:33.047Z,96426.69
2023-05-08T12:07:46.952Z,96433.63
2023-05-08T12:08:49.550Z,96414.13
2023-05-08T12:09:55.489Z,96406.28
2023-05-08T12:11:01.184Z,96392.56
2023-05-08T12:12:06.258Z,96418.53
2023-05-08T12:13:19.178Z,96393.00
2023-05-08T12:14:26.773Z,96379.72
2023-05-08T12:15:29.557Z,96364.53
2023-05-08T12:16:38.924Z,96372.22
2023-05-08T12:17:42.186Z,96368.94
2023-05-08T12:18:47.560Z,96367.53
2023-05-08T12:20:04.632Z,96367.25
2023-05-08T12:21:07.150Z,96389.22
2023-05-08T12:22:12.737Z,96380.47
2023-05-08T12:23:17.714Z,96355.28
2023-05-08T12:24:25.798Z,96349.50
2023-05-08T12:25:28.581Z,96356.28
2023-05-08T12:26:38.986Z,96367.00
2023-05-08T12:27:41.782Z,96351.16
2023-05-08T12:28:49.648Z,96359.75
2023-05-08T12:29:52.084Z,96361.59
2023-05-08T12:30:57.664Z,96357.78
2023-05-08T12:32:02.736Z,96358.47
2023-05-08T12:33:06.344Z,96363.00
2023-05-08T12:34:12.056Z,96354.03
2023-05-08T12:35:15.895Z,96333.75
2023-05-08T12:36:20.970Z,96341.06
2023-05-08T12:37:28.266Z,96336.41
2023-05-08T12:38:33.512Z,96327.81
2023-05-08T12:39:37.851Z,96351.66
2023-05-08T12:40:45.917Z,96345.19
2023-05-08T12:41:52.726Z,96336.06
2023-05-08T12:42:58.526Z,96347.78
2023-05-08T12:44:03.703Z,96340.53
2023-05-08T12:45:07.988Z,96345.19
2023-05-08T12:46:17.347Z,96343.00
2023-05-08T12:47:20.577Z,96344.50
2023-05-08T12:48:26.790Z,96343.81
2023-05-08T12:49:31.362Z,96346.16
2023-05-08T12:50:38.705Z,96353.13
2023-05-08T12:51:51.114Z,96364.47
2023-05-08T12:52:53.898Z,96353.16
2023-05-08T12:53:59.639Z,96347.25
2023-05-08T12:55:02.718Z,96342.41
2023-05-08T12:56:08.688Z,96341.69
2023-05-08T12:57:15.153Z,96348.00
2023-05-08T12:58:20.702Z,96354.19
2023-05-08T12:59:32.400Z,96331.81
2023-05-08T13:00:39.803Z,96309.13
2023-05-08T13:01:45.296Z,96342.47
2023-05-08T13:02:54.668Z,96331.34
2023-05-08T13:04:03.166Z,96342.38
2023-05-08T13:05:07.219Z,96315.31
2023-05-08T13:06:23.640Z,96327.03